Time;durP1;ratioP1;P1;durP2;ratioP2;P2;SDS_P1;SDS_P2;PMS_P1;PMS_P2;Temp;Humidity;BMP_temperature;BMP_pressure;BME280_temperature;BME280_humidity;BME280_pressure;Samples;Min_cycle;Max_cycle;Signal;HPM_P1;HPM_P2
2022/11/29 00:00:01;;;;;;;;;;;;;;;5.14;100.00;99982.13;316366;31;2382;-76
2022/11/29 00:00:11;;;;;;;;;;;;;;;5.14;100.00;99976.94;316758;31;1650;-76
2022/11/29 00:00:21;;;;;;;;;;;;;;;5.13;100.00;99978.69;317787;31;968;-75
2022/11/29 00:00:32;;;;;;;;;;;;;;;5.14;100.00;99983.00;315512;31;2287;-75
2022/11/29 00:00:46;;;;;;;;;;;;;;;5.15;100.00;99983.84;313531;31;2991;-76
2022/11/29 00:00:57;;;;;;;;;;;;;;;5.14;100.00;99980.41;309749;31;3817;-76
2022/11/29 00:01:09;;;;;;;;;;;;;;;5.16;100.00;99985.56;307753;32;1239;-76
2022/11/29 00:01:20;;;;;;;;;;;;;;;5.15;100.00;99978.66;310856;31;3991;-76
2022/11/29 00:01:30;;;;;;;;;;;;;;;5.15;100.00;99976.94;306904;32;4572;-76
2022/11/29 00:01:41;;;;;;;;;;;;;;;5.17;100.00;99982.94;304962;32;3873;-75
2022/11/29 00:01:51;;;;;;;;;;;;;;;5.16;100.00;99973.47;304457;32;1979;-75
2022/11/29 00:02:01;;;;;;;;;;;;;;;5.17;100.00;99984.69;304052;32;4199;-76
2022/11/29 00:02:11;;;;;;;;;;;;;;;5.17;100.00;99976.91;302184;32;3296;-75
2022/11/29 00:02:22;;;;;;;;;;;;;;;5.18;100.00;99978.63;299788;32;5567;-75
2022/11/29 00:02:32;;;;;;;;;;;;;;;5.18;100.00;99984.66;298824;32;6039;-76
2022/11/29 00:02:42;;;;;;;;;;;;;;;5.19;100.00;99976.00;298807;32;3950;-76
2022/11/29 00:02:52;;;;;;;;;;;;;;;5.19;100.00;99982.94;298952;33;5785;-76
2022/11/29 00:03:03;;;;;;;;;;;;;;;5.18;100.00;99978.63;298731;32;4484;-76
2022/11/29 00:03:13;;;;;;;;;;;;;;;5.18;100.00;99978.63;297426;33;5552;-76
2022/11/29 00:03:24;;;;;;;;;;;;;;;5.19;100.00;99980.34;296338;33;1705;-75
2022/11/29 00:03:34;;;;;;;;;;;;;;;5.19;100.00;99980.34;294299;33;5724;-75
2022/11/29 00:03:44;;;;;;;;;;;;;;;5.18;100.00;99981.22;294324;33;6529;-75
2022/11/29 00:03:54;;;;;;;;;;;;;;;5.19;100.00;99980.34;292084;33;5221;-75
2022/11/29 00:04:05;;;;;;;;;;;;;;;5.19;100.00;99976.00;290989;34;1635;-76
2022/11/29 00:04:15;;;;;;;;;;;;;;;5.18;100.00;99984.66;288296;34;5520;-75
2022/11/29 00:04:26;;;;;;;;;;;;;;;5.18;100.00;99979.47;287792;33;4378;-75
2022/11/29 00:04:36;;;;;;;;;;;;;;;5.18;100.00;99978.63;289591;34;915;-75
2022/11/29 00:04:46;;;;;;;;;;;;;;;5.18;100.00;99978.63;288102;34;4003;-75
2022/11/29 00:04:57;;;;;;;;;;;;;;;5.17;100.00;99975.16;289046;33;5148;-75
2022/11/29 00:05:07;;;;;;;;;;;;;;;5.17;100.00;99971.72;292483;33;879;-75
2022/11/29 00:05:17;;;;;;;;;;;;;;;5.17;100.00;99972.56;288503;34;7909;-75
2022/11/29 00:05:27;;;;;;;;;;;;;;;5.18;100.00;99981.22;285197;34;9462;-75
2022/11/29 00:05:38;;;;;;;;;;;;;;;5.20;100.00;99982.06;285686;34;1573;-75
2022/11/29 00:05:48;;;;;;;;;;;;;;;5.18;100.00;99983.81;287401;33;7609;-75
2022/11/29 00:06:08;;;;;;;;;;;;;;;5.17;100.00;99979.50;286440;34;10059;-75
2022/11/29 00:06:19;;;;;;;;;;;;;;;5.18;100.00;99973.44;283540;34;6848;-76
2022/11/29 00:06:30;;;;;;;;;;;;;;;5.18;100.00;99971.69;279280;35;7150;-75
2022/11/29 00:08:03;;;;;;;;;;;;;;;5.16;100.00;99981.25;2501266;27;19937;-76
2022/11/29 00:08:14;;;;;;;;;;;;;;;5.16;100.00;99981.25;356399;27;972;-76
2022/11/29 00:08:24;;;;;;;;;;;;;;;5.15;100.00;99974.34;353407;28;1337;-75
2022/11/29 00:08:35;;;;;;;;;;;;;;;5.17;100.00;99977.75;352092;28;1222;-75
2022/11/29 00:08:45;;;;;;;;;;;;;;;5.15;100.00;99982.13;352197;28;900;-75
2022/11/29 00:08:57;;;;;;;;;;;;;;;5.16;100.00;99976.03;351174;28;1407;-76
2022/11/29 00:09:08;;;;;;;;;;;;;;;5.16;100.00;99981.25;349303;28;1492;-76
2022/11/29 00:09:18;;;;;;;;;;;;;;;5.16;100.00;99976.03;350736;28;989;-76
2022/11/29 00:09:28;;;;;;;;;;;;;;;5.15;100.00;99976.06;349218;28;1183;-77
2022/11/29 00:09:38;;;;;;;;;;;;;;;5.15;100.00;99971.75;347879;28;1203;-76
2022/11/29 00:09:49;;;;;;;;;;;;;;;5.15;100.00;99973.47;349351;28;1748;-76
2022/11/29 00:09:59;;;;;;;;;;;;;;;5.17;100.00;99979.50;351612;28;1207;-76
2022/11/29 00:10:09;;;;;;;;;;;;;;;5.17;100.00;99982.09;351983;28;1197;-76
2022/11/29 00:10:19;;;;;;;;;;;;;;;5.17;100.00;99982.09;350717;28;828;-76
2022/11/29 00:10:30;;;;;;;;;;;;;;;5.18;100.00;99986.41;350684;28;900;-76
2022/11/29 00:10:40;;;;;;;;;;;;;;;5.15;100.00;99976.94;350523;28;1456;-77
2022/11/29 00:10:50;;;;;;;;;;;;;;;5.16;100.00;99985.56;353456;28;1362;-77
2022/11/29 00:11:10;;;;;;;;;;;;;;;5.17;100.00;99976.91;350658;28;1375;-76
2022/11/29 00:12:19;;;;;;;;;;;;;;;5.13;100.00;99970.03;344688;28;811;-76
2022/11/29 00:12:30;;;;;;;;;;;;;;;5.14;100.00;99976.94;346370;28;1018;-76
2022/11/29 00:12:40;;;;;;;;;;;;;;;5.14;100.00;99982.13;345471;28;1184;-76
2022/11/29 00:12:50;;;;;;;;;;;;;;;5.14;100.00;99982.13;345842;28;1343;-76
2022/11/29 00:13:00;;;;;;;;;;;;;;;5.12;100.00;99974.38;345260;28;920;-76
2022/11/29 00:13:10;;;;;;;;;;;;;;;5.11;100.00;99976.97;345072;28;1437;-76
2022/11/29 00:13:21;;;;;;;;;;;;;;;5.11;100.00;99976.97;347897;28;793;-76
2022/11/29 00:13:31;;;;;;;;;;;;;;;5.10;100.00;99975.25;347682;28;1402;-76
2022/11/29 00:13:41;;;;;;;;;;;;;;;5.09;100.00;99981.34;346801;28;1281;-76
2022/11/29 00:13:51;;;;;;;;;;;;;;;5.09;100.00;99983.94;346804;28;1787;-76
2022/11/29 00:14:02;;;;;;;;;;;;;;;5.09;100.00;99979.59;347691;28;1216;-76
2022/11/29 00:14:13;;;;;;;;;;;;;;;5.09;100.00;99978.75;347747;28;1073;-76
2022/11/29 00:14:23;;;;;;;;;;;;;;;5.11;100.00;99982.16;344900;28;1348;-76
2022/11/29 00:14:33;;;;;;;;;;;;;;;5.11;100.00;99979.56;343804;28;1221;-76
2022/11/29 00:14:44;;;;;;;;;;;;;;;5.11;100.00;99974.38;345678;28;1073;-75
2022/11/29 00:14:54;;;;;;;;;;;;;;;5.10;100.00;99976.13;344897;28;1324;-77
2022/11/29 00:15:04;;;;;;;;;;;;;;;5.12;100.00;99978.69;346527;28;1286;-76
2022/11/29 00:15:14;;;;;;;;;;;;;;;5.13;100.00;99975.22;347876;28;1223;-76
2022/11/29 00:15:25;;;;;;;;;;;;;;;5.11;100.00;99980.44;348040;28;869;-76
2022/11/29 00:15:35;;;;;;;;;;;;;;;5.13;100.00;99975.22;345265;28;1384;-76
2022/11/29 00:15:46;;;;;;;;;;;;;;;5.12;100.00;99976.97;339945;28;1216;-76
2022/11/29 00:16:00;;;;;;;;;;;;;;;5.11;100.00;99977.84;337509;29;2033;-77
2022/11/29 00:16:14;;;;;;;;;;;;;;;5.11;100.00;99976.97;340703;28;1423;-76
2022/11/29 00:16:24;;;;;;;;;;;;;;;5.10;100.00;99976.13;346732;28;1362;-76
2022/11/29 00:16:35;;;;;;;;;;;;;;;5.10;100.00;99975.25;343764;28;1531;-76
2022/11/29 00:16:48;;;;;;;;;;;;;;;5.10;100.00;99980.44;341446;28;1504;-76
2022/11/29 00:17:00;;;;;;;;;;;;;;;5.11;100.00;99971.78;337545;29;1914;-76
2022/11/29 00:17:10;;;;;;;;;;;;;;;5.11;100.00;99983.03;339551;29;938;-76
2022/11/29 00:17:21;;;;;;;;;;;;;;;5.11;100.00;99974.38;342186;28;1067;-76
2022/11/29 00:17:31;;;;;;;;;;;;;;;5.10;100.00;99975.25;342434;28;1105;-76
2022/11/29 00:17:41;;;;;;;;;;;;;;;5.09;100.00;99978.75;345106;28;1562;-77
2022/11/29 00:17:51;;;;;;;;;;;;;;;5.09;100.00;99979.59;342507;28;1163;-76
2022/11/29 00:18:02;;;;;;;;;;;;;;;5.10;100.00;99980.44;342229;28;1620;-76
2022/11/29 00:18:12;;;;;;;;;;;;;;;5.10;100.00;99975.25;339433;29;1796;-76
2022/11/29 00:18:22;;;;;;;;;;;;;;;5.08;100.00;99977.03;338098;29;1887;-76
2022/11/29 00:18:32;;;;;;;;;;;;;;;5.08;100.00;99980.47;339846;29;1233;-77
2022/11/29 00:18:43;;;;;;;;;;;;;;;5.08;100.00;99974.44;336824;29;2114;-77
2022/11/29 00:18:53;;;;;;;;;;;;;;;5.08;100.00;99974.44;334951;28;2204;-75
2022/11/29 00:19:04;;;;;;;;;;;;;;;5.07;100.00;99972.72;339868;29;1186;-77
2022/11/29 00:19:14;;;;;;;;;;;;;;;5.05;100.00;99972.72;339153;29;1564;-74
2022/11/29 00:19:24;;;;;;;;;;;;;;;5.05;100.00;99971.88;343687;28;1186;-77
2022/11/29 00:19:34;;;;;;;;;;;;;;;5.05;100.00;99977.91;339933;29;1295;-76
2022/11/29 00:19:45;;;;;;;;;;;;;;;5.05;100.00;99977.91;338642;29;1562;-76
2022/11/29 00:19:55;;;;;;;;;;;;;;;5.06;100.00;99978.78;337048;29;1878;-76
2022/11/29 00:20:05;;;;;;;;;;;;;;;5.07;100.00;99975.31;336092;29;933;-75
2022/11/29 00:20:15;;;;;;;;;;;;;;;5.06;100.00;99974.44;335733;29;2098;-75
2022/11/29 00:20:26;;;;;;;;;;;;;;;5.06;100.00;99973.59;335347;29;2196;-76
2022/11/29 00:20:37;;;;;;;;;;;;;;;5.06;100.00;99973.59;336067;29;3412;-76
2022/11/29 00:20:47;;;;;;;;;;;;;;;5.04;100.00;99977.94;335183;29;3189;-77
2022/11/29 00:20:57;;;;;;;;;;;;;;;5.04;100.00;99975.34;334885;29;2672;-77
2022/11/29 00:21:07;;;;;;;;;;;;;;;5.04;100.00;99975.34;334769;29;2586;-77
2022/11/29 00:21:18;;;;;;;;;;;;;;;5.04;100.00;99975.34;339061;29;3583;-77
2022/11/29 00:21:28;;;;;;;;;;;;;;;5.04;100.00;99975.34;339062;29;1689;-77
2022/11/29 00:21:38;;;;;;;;;;;;;;;5.05;100.00;99977.06;338185;29;1416;-77
2022/11/29 00:21:48;;;;;;;;;;;;;;;5.05;100.00;99977.06;332330;29;1925;-77
2022/11/29 00:21:59;;;;;;;;;;;;;;;5.07;100.00;99975.31;333648;29;1494;-77
2022/11/29 00:22:09;;;;;;;;;;;;;;;5.06;100.00;99974.44;330297;29;2574;-77
2022/11/29 00:22:19;;;;;;;;;;;;;;;5.07;100.00;99970.13;326544;30;1305;-77
2022/11/29 00:22:30;;;;;;;;;;;;;;;5.06;100.00;99979.63;330496;29;3650;-76
2022/11/29 00:22:40;;;;;;;;;;;;;;;5.06;100.00;99978.78;326076;30;3084;-77
2022/11/29 00:22:50;;;;;;;;;;;;;;;5.07;100.00;99975.31;326167;30;1272;-77
2022/11/29 00:23:00;;;;;;;;;;;;;;;5.07;100.00;99981.34;325146;30;3335;-77
2022/11/29 00:23:10;;;;;;;;;;;;;;;5.08;100.00;99977.03;327347;29;3087;-77
2022/11/29 00:23:21;;;;;;;;;;;;;;;5.08;100.00;99971.84;327222;30;1446;-77
2022/11/29 00:23:31;;;;;;;;;;;;;;;5.07;100.00;99980.50;323313;30;3293;-76
2022/11/29 00:23:41;;;;;;;;;;;;;;;5.08;100.00;99974.44;324489;30;2468;-76
2022/11/29 00:23:51;;;;;;;;;;;;;;;5.07;100.00;99976.16;328252;30;1199;-76
2022/11/29 00:24:02;;;;;;;;;;;;;;;5.08;100.00;99974.44;327775;30;2272;-75
2022/11/29 00:24:12;;;;;;;;;;;;;;;5.09;100.00;99978.75;326596;30;3115;-75
2022/11/29 00:24:22;;;;;;;;;;;;;;;5.09;100.00;99976.16;323321;30;3469;-75
2022/11/29 00:24:33;;;;;;;;;;;;;;;5.08;100.00;99971.84;322506;30;853;-75
2022/11/29 00:24:43;;;;;;;;;;;;;;;5.07;100.00;99970.97;317810;30;4534;-76
2022/11/29 00:24:53;;;;;;;;;;;;;;;5.08;100.00;99979.63;316524;30;4632;-76
2022/11/29 00:25:04;;;;;;;;;;;;;;;5.08;100.00;99967.50;321217;30;1307;-76
2022/11/29 00:25:14;;;;;;;;;;;;;;;5.08;100.00;99977.03;315743;30;5119;-76
2022/11/29 00:25:25;;;;;;;;;;;;;;;5.08;100.00;99977.03;313588;31;4044;-76
2022/11/29 00:25:36;;;;;;;;;;;;;;;5.07;100.00;99970.97;314365;31;1363;-75
2022/11/29 00:25:46;;;;;;;;;;;;;;;5.08;100.00;99971.84;316165;31;4519;-75
2022/11/29 00:26:03;;;;;;;;;;;;;;;5.09;100.00;99978.75;312951;31;3468;-75
2022/11/29 00:26:13;;;;;;;;;;;;;;;5.08;100.00;99972.69;312724;31;3206;-75
2022/11/29 00:26:24;;;;;;;;;;;;;;;5.10;100.00;99970.06;312256;31;3758;-75
2022/11/29 00:26:35;;;;;;;;;;;;;;;5.09;100.00;99973.56;311117;31;776;-75
2022/11/29 00:26:46;;;;;;;;;;;;;;;5.10;100.00;99972.66;308208;31;4862;-76
2022/11/29 00:26:56;;;;;;;;;;;;;;;5.09;100.00;99968.38;307380;31;6355;-75
2022/11/29 00:27:06;;;;;;;;;;;;;;;5.10;100.00;99970.06;308804;32;1241;-76
2022/11/29 00:27:17;;;;;;;;;;;;;;;5.10;100.00;99970.06;306364;32;6306;-76
2022/11/29 00:27:27;;;;;;;;;;;;;;;5.10;100.00;99975.25;307105;31;6947;-76
2022/11/29 00:27:37;;;;;;;;;;;;;;;5.09;100.00;99968.38;307812;32;886;-76
2022/11/29 00:27:47;;;;;;;;;;;;;;;5.10;100.00;99970.06;302826;32;1859;-77
2022/11/29 00:27:58;;;;;;;;;;;;;;;5.08;100.00;99971.84;299236;32;5839;-76
2022/11/29 00:28:08;;;;;;;;;;;;;;;5.09;100.00;99974.41;296220;33;4504;-76
2022/11/29 00:28:18;;;;;;;;;;;;;;;5.09;100.00;99973.56;297313;33;916;-76
2022/11/29 00:28:28;;;;;;;;;;;;;;;5.09;100.00;99974.41;295047;33;4951;-76
2022/11/29 00:28:38;;;;;;;;;;;;;;;5.09;100.00;99968.38;294043;33;6640;-76
2022/11/29 00:28:49;;;;;;;;;;;;;;;5.10;100.00;99980.44;294537;33;1356;-76
2022/11/29 00:28:59;;;;;;;;;;;;;;;5.10;100.00;99975.25;289723;33;7249;-76
2022/11/29 00:29:10;;;;;;;;;;;;;;;5.09;100.00;99969.22;287156;34;8782;-76
2022/11/29 00:29:20;;;;;;;;;;;;;;;5.09;100.00;99973.56;287755;34;938;-76
2022/11/29 00:29:31;;;;;;;;;;;;;;;5.08;100.00;99967.50;287062;33;9923;-77
2022/11/29 00:29:41;;;;;;;;;;;;;;;5.09;100.00;99968.38;286128;34;9676;-76
2022/11/29 00:29:51;;;;;;;;;;;;;;;5.09;100.00;99973.56;282413;34;5882;-75
2022/11/29 00:31:35;;;;;;;;;;;;;;;5.10;100.00;99973.53;2495838;27;19922;-76
2022/11/29 00:31:45;;;;;;;;;;;;;;;5.10;100.00;99970.06;353590;27;1715;-76
2022/11/29 00:31:56;;;;;;;;;;;;;;;5.10;100.00;99970.06;351961;28;1223;-77
2022/11/29 00:32:06;;;;;;;;;;;;;;;5.10;100.00;99970.06;350718;28;1351;-76
2022/11/29 00:32:16;;;;;;;;;;;;;;;5.11;100.00;99971.78;349236;28;1330;-75
2022/11/29 00:32:26;;;;;;;;;;;;;;;5.11;100.00;99971.78;349271;28;1299;-76
2022/11/29 00:32:36;;;;;;;;;;;;;;;5.11;100.00;99975.25;349294;28;871;-76
2022/11/29 00:32:47;;;;;;;;;;;;;;;5.11;100.00;99972.66;350652;28;1708;-76
2022/11/29 00:32:57;;;;;;;;;;;;;;;5.11;100.00;99972.66;352013;28;1206;-76
2022/11/29 00:33:07;;;;;;;;;;;;;;;5.11;100.00;99971.78;350763;28;907;-75
2022/11/29 00:33:17;;;;;;;;;;;;;;;5.12;100.00;99970.91;349236;28;1576;-75
2022/11/29 00:33:28;;;;;;;;;;;;;;;5.12;100.00;99970.91;349903;28;874;-75
2022/11/29 00:33:38;;;;;;;;;;;;;;;5.11;100.00;99970.06;349711;28;793;-75
2022/11/29 00:33:48;;;;;;;;;;;;;;;5.11;100.00;99966.59;349211;28;1480;-75
2022/11/29 00:33:59;;;;;;;;;;;;;;;5.11;100.00;99974.38;349792;28;798;-75
2022/11/29 00:34:09;;;;;;;;;;;;;;;5.11;100.00;99967.47;350714;28;1396;-75
2022/11/29 00:34:20;;;;;;;;;;;;;;;5.12;100.00;99973.50;349268;28;1211;-76
2022/11/29 00:34:30;;;;;;;;;;;;;;;5.13;100.00;99962.25;349238;28;1224;-76
2022/11/29 00:34:40;;;;;;;;;;;;;;;5.13;100.00;99967.44;350811;28;955;-76
2022/11/29 00:34:51;;;;;;;;;;;;;;;5.13;100.00;99970.03;349336;28;781;-75
2022/11/29 00:35:01;;;;;;;;;;;;;;;5.12;100.00;99971.78;349083;28;1681;-76
2022/11/29 00:35:11;;;;;;;;;;;;;;;5.12;100.00;99974.38;349274;28;1251;-76
2022/11/29 00:35:21;;;;;;;;;;;;;;;5.12;100.00;99970.91;350576;28;1277;-76
2022/11/29 00:35:31;;;;;;;;;;;;;;;5.12;100.00;99963.13;354290;27;1025;-76
2022/11/29 00:35:42;;;;;;;;;;;;;;;5.11;100.00;99964.00;352136;28;1255;-75
2022/11/29 00:35:52;;;;;;;;;;;;;;;5.12;100.00;99973.50;350664;28;1189;-76
2022/11/29 00:36:02;;;;;;;;;;;;;;;5.11;100.00;99970.06;353433;28;1311;-75
2022/11/29 00:36:12;;;;;;;;;;;;;;;5.11;100.00;99971.78;352159;28;1339;-75
2022/11/29 00:36:23;;;;;;;;;;;;;;;5.11;100.00;99972.66;349410;28;1309;-76
2022/11/29 00:36:33;;;;;;;;;;;;;;;5.12;100.00;99968.31;349303;28;1207;-76
2022/11/29 00:36:44;;;;;;;;;;;;;;;5.11;100.00;99971.78;350999;28;1722;-76
2022/11/29 00:36:54;;;;;;;;;;;;;;;5.11;100.00;99971.78;351969;28;1506;-76
2022/11/29 00:37:04;;;;;;;;;;;;;;;5.11;100.00;99967.47;350069;28;1207;-76
2022/11/29 00:37:14;;;;;;;;;;;;;;;5.11;100.00;99967.47;348734;28;975;-76
2022/11/29 00:37:24;;;;;;;;;;;;;;;5.10;100.00;99970.06;350487;28;1633;-75
2022/11/29 00:37:35;;;;;;;;;;;;;;;5.10;100.00;99973.53;349466;28;953;-75
2022/11/29 00:37:45;;;;;;;;;;;;;;;5.09;100.00;99970.97;347882;28;977;-75
2022/11/29 00:37:55;;;;;;;;;;;;;;;5.09;100.00;99971.81;347588;28;1362;-75
2022/11/29 00:38:05;;;;;;;;;;;;;;;5.10;100.00;99970.06;347083;28;1462;-75
2022/11/29 00:38:15;;;;;;;;;;;;;;;5.09;100.00;99963.19;346945;28;1397;-75
2022/11/29 00:38:26;;;;;;;;;;;;;;;5.10;100.00;99970.06;347244;28;1060;-76
2022/11/29 00:38:36;;;;;;;;;;;;;;;5.10;100.00;99967.47;346677;28;941;-77
2022/11/29 00:38:47;;;;;;;;;;;;;;;5.10;100.00;99967.47;345263;28;891;-76
2022/11/29 00:38:57;;;;;;;;;;;;;;;5.10;100.00;99965.75;343474;28;3265;-76
2022/11/29 00:39:10;;;;;;;;;;;;;;;5.09;100.00;99969.22;339607;29;3468;-76
2022/11/29 00:39:20;;;;;;;;;;;;;;;5.11;100.00;99969.19;345184;28;819;-76
2022/11/29 00:39:30;;;;;;;;;;;;;;;5.10;100.00;99962.28;345625;28;1689;-76
2022/11/29 00:39:41;;;;;;;;;;;;;;;5.10;100.00;99970.06;347957;28;1384;-76
2022/11/29 00:39:51;;;;;;;;;;;;;;;5.09;100.00;99965.78;346840;28;828;-77
2022/11/29 00:40:02;;;;;;;;;;;;;;;5.10;100.00;99963.16;344584;28;1367;-76
2022/11/29 00:40:12;;;;;;;;;;;;;;;5.10;100.00;99964.91;345058;28;1613;-76
2022/11/29 00:40:22;;;;;;;;;;;;;;;5.09;100.00;99968.38;341055;28;1221;-77
2022/11/29 00:40:32;;;;;;;;;;;;;;;5.09;100.00;99965.78;338393;29;1670;-77
2022/11/29 00:40:42;;;;;;;;;;;;;;;5.08;100.00;99969.25;341616;28;1337;-77
2022/11/29 00:40:53;;;;;;;;;;;;;;;5.09;100.00;99968.38;339873;29;1581;-77
2022/11/29 00:41:03;;;;;;;;;;;;;;;5.08;100.00;99959.72;346204;28;1522;-77
2022/11/29 00:41:13;;;;;;;;;;;;;;;5.09;100.00;99960.59;347673;28;967;-77
2022/11/29 00:41:23;;;;;;;;;;;;;;;5.11;100.00;99969.19;346580;28;879;-77
2022/11/29 00:41:34;;;;;;;;;;;;;;;5.10;100.00;99960.56;341576;28;1430;-77
2022/11/29 00:41:44;;;;;;;;;;;;;;;5.11;100.00;99966.59;337316;29;1917;-77
2022/11/29 00:41:54;;;;;;;;;;;;;;;5.10;100.00;99965.75;334375;29;1816;-76
2022/11/29 00:42:05;;;;;;;;;;;;;;;5.11;100.00;99962.28;336098;29;955;-76
2022/11/29 00:42:15;;;;;;;;;;;;;;;5.10;100.00;99959.69;334275;29;2002;-76
2022/11/29 00:42:25;;;;;;;;;;;;;;;5.11;100.00;99961.41;334710;29;2078;-76
2022/11/29 00:42:35;;;;;;;;;;;;;;;5.11;100.00;99961.41;336013;29;1211;-76
2022/11/29 00:42:45;;;;;;;;;;;;;;;5.12;100.00;99963.13;337223;29;1564;-76
2022/11/29 00:42:56;;;;;;;;;;;;;;;5.11;100.00;99961.41;333228;29;1391;-76
2022/11/29 00:43:06;;;;;;;;;;;;;;;5.11;100.00;99958.81;334694;29;1238;-76
2022/11/29 00:43:16;;;;;;;;;;;;;;;5.11;100.00;99967.47;333140;29;1144;-76
2022/11/29 00:43:26;;;;;;;;;;;;;;;5.11;100.00;99961.41;333096;29;1867;-76
2022/11/29 00:43:37;;;;;;;;;;;;;;;5.12;100.00;99965.72;330936;29;2109;-76
2022/11/29 00:43:47;;;;;;;;;;;;;;;5.12;100.00;99963.13;330017;29;1897;-76
2022/11/29 00:43:57;;;;;;;;;;;;;;;5.12;100.00;99963.13;331574;29;2504;-76
2022/11/29 00:44:07;;;;;;;;;;;;;;;5.12;100.00;99965.72;328899;30;1221;-76
2022/11/29 00:44:18;;;;;;;;;;;;;;;5.12;100.00;99970.91;327467;29;2518;-76
2022/11/29 00:44:28;;;;;;;;;;;;;;;5.11;100.00;99964.00;328731;29;2385;-77
2022/11/29 00:44:38;;;;;;;;;;;;;;;5.11;100.00;99964.00;332170;29;875;-77
2022/11/29 00:44:48;;;;;;;;;;;;;;;5.11;100.00;99961.41;328086;29;2736;-75
2022/11/29 00:44:59;;;;;;;;;;;;;;;5.10;100.00;99959.69;328292;30;1976;-76
2022/11/29 00:45:09;;;;;;;;;;;;;;;5.11;100.00;99961.41;331055;29;969;-76
2022/11/29 00:45:19;;;;;;;;;;;;;;;5.10;100.00;99959.69;328321;30;1702;-76
2022/11/29 00:45:29;;;;;;;;;;;;;;;5.10;100.00;99962.28;328647;30;1962;-76
2022/11/29 00:45:39;;;;;;;;;;;;;;;5.10;100.00;99962.28;326533;30;2607;-76
2022/11/29 00:45:50;;;;;;;;;;;;;;;5.09;100.00;99958.00;324869;30;1365;-76
2022/11/29 00:46:00;;;;;;;;;;;;;;;5.08;100.00;99961.47;323918;30;2801;-76
2022/11/29 00:46:11;;;;;;;;;;;;;;;5.09;100.00;99958.00;325511;30;3347;-76
2022/11/29 00:46:21;;;;;;;;;;;;;;;5.09;100.00;99958.00;323654;30;1474;-76
2022/11/29 00:46:32;;;;;;;;;;;;;;;5.08;100.00;99961.47;319953;30;3188;-76
2022/11/29 00:46:42;;;;;;;;;;;;;;;5.08;100.00;99962.31;318642;30;3132;-76
2022/11/29 00:46:52;;;;;;;;;;;;;;;5.08;100.00;99966.66;317609;31;1508;-76
2022/11/29 00:47:02;;;;;;;;;;;;;;;5.08;100.00;99958.88;317495;31;3209;-76
2022/11/29 00:47:13;;;;;;;;;;;;;;;5.08;100.00;99964.91;316413;31;2437;-76
2022/11/29 00:47:23;;;;;;;;;;;;;;;5.07;100.00;99951.97;316209;31;1435;-76
2022/11/29 00:47:33;;;;;;;;;;;;;;;5.07;100.00;99954.56;319298;30;1982;-76
2022/11/29 00:47:43;;;;;;;;;;;;;;;5.08;100.00;99964.91;320151;30;2982;-76
2022/11/29 00:47:54;;;;;;;;;;;;;;;5.08;100.00;99956.28;320187;30;873;-76
2022/11/29 00:48:04;;;;;;;;;;;;;;;5.08;100.00;99961.47;313828;31;4057;-76
2022/11/29 00:48:14;;;;;;;;;;;;;;;5.09;100.00;99958.84;310501;31;5876;-76
2022/11/29 00:48:24;;;;;;;;;;;;;;;5.08;100.00;99956.28;313187;31;5782;-76
2022/11/29 00:48:35;;;;;;;;;;;;;;;5.06;100.00;99958.88;314156;31;1338;-76
2022/11/29 00:48:45;;;;;;;;;;;;;;;5.07;100.00;99957.16;311925;31;4571;-76
2022/11/29 00:48:55;;;;;;;;;;;;;;;5.07;100.00;99954.56;311761;31;4538;-76
2022/11/29 00:49:05;;;;;;;;;;;;;;;5.06;100.00;99952.84;314295;31;1350;-76
2022/11/29 00:49:16;;;;;;;;;;;;;;;5.07;100.00;99954.56;313875;31;4462;-76
2022/11/29 00:49:26;;;;;;;;;;;;;;;5.08;100.00;99951.09;310048;31;3616;-76
2022/11/29 00:49:36;;;;;;;;;;;;;;;5.08;100.00;99958.88;306781;32;1113;-76
2022/11/29 00:49:46;;;;;;;;;;;;;;;5.08;100.00;99956.28;305646;32;3458;-77
2022/11/29 00:49:57;;;;;;;;;;;;;;;5.08;100.00;99956.28;305016;32;4453;-77
2022/11/29 00:50:07;;;;;;;;;;;;;;;5.08;100.00;99958.88;307779;32;888;-76
2022/11/29 00:50:17;;;;;;;;;;;;;;;5.09;100.00;99960.59;309149;31;5556;-76
2022/11/29 00:50:27;;;;;;;;;;;;;;;5.09;100.00;99952.78;306055;32;6104;-76
2022/11/29 00:50:38;;;;;;;;;;;;;;;5.09;100.00;99958.00;305687;32;804;-76
2022/11/29 00:50:48;;;;;;;;;;;;;;;5.09;100.00;99943.28;304353;32;6391;-76
2022/11/29 00:50:58;;;;;;;;;;;;;;;5.09;100.00;99952.78;302033;32;6987;-76
2022/11/29 00:51:08;;;;;;;;;;;;;;;5.08;100.00;99962.31;301532;32;881;-77
2022/11/29 00:51:18;;;;;;;;;;;;;;;5.09;100.00;99952.78;298196;32;5770;-77
2022/11/29 00:51:29;;;;;;;;;;;;;;;5.09;100.00;99958.00;300351;32;6242;-77
2022/11/29 00:51:39;;;;;;;;;;;;;;;5.09;100.00;99958.00;299380;32;2718;-77
2022/11/29 00:51:49;;;;;;;;;;;;;;;5.09;100.00;99953.66;291539;33;1866;-76
2022/11/29 00:51:59;;;;;;;;;;;;;;;5.09;100.00;99958.84;289029;33;5119;-76
2022/11/29 00:52:10;;;;;;;;;;;;;;;5.09;100.00;99958.84;290843;33;6453;-76
2022/11/29 00:52:20;;;;;;;;;;;;;;;5.09;100.00;99958.00;292790;33;1254;-76
2022/11/29 00:52:30;;;;;;;;;;;;;;;5.09;100.00;99961.44;289468;33;8015;-76
2022/11/29 00:52:40;;;;;;;;;;;;;;;5.08;100.00;99957.13;288431;33;9294;-76
2022/11/29 00:52:50;;;;;;;;;;;;;;;5.08;100.00;99958.88;290031;34;1211;-77
2022/11/29 00:53:01;;;;;;;;;;;;;;;5.08;100.00;99951.09;285873;34;9633;-77
2022/11/29 00:53:11;;;;;;;;;;;;;;;5.08;100.00;99957.13;283471;34;9500;-76
2022/11/29 00:53:21;;;;;;;;;;;;;;;5.09;100.00;99963.19;285791;34;871;-76
2022/11/29 00:53:32;;;;;;;;;;;;;;;5.09;100.00;99963.19;283837;34;7570;-76
2022/11/29 00:55:16;;;;;;;;;;;;;;;5.08;100.00;99961.47;2502077;27;19933;-78
2022/11/29 00:55:27;;;;;;;;;;;;;;;5.09;100.00;99955.41;353295;28;2008;-77
2022/11/29 00:55:37;;;;;;;;;;;;;;;5.09;100.00;99952.78;352092;28;1350;-76
2022/11/29 00:55:47;;;;;;;;;;;;;;;5.09;100.00;99952.78;350912;28;1085;-76
2022/11/29 00:55:57;;;;;;;;;;;;;;;5.09;100.00;99958.00;349398;28;998;-77
2022/11/29 00:56:08;;;;;;;;;;;;;;;5.10;100.00;99959.69;350603;28;1247;-77
2022/11/29 00:56:18;;;;;;;;;;;;;;;5.10;100.00;99959.69;349349;28;1239;-77
2022/11/29 00:56:28;;;;;;;;;;;;;;;5.10;100.00;99954.50;350365;28;1125;-76
2022/11/29 00:56:38;;;;;;;;;;;;;;;5.10;100.00;99959.69;349276;28;904;-76
2022/11/29 00:56:49;;;;;;;;;;;;;;;5.10;100.00;99959.69;347814;28;1960;-76
2022/11/29 00:56:59;;;;;;;;;;;;;;;5.09;100.00;99951.06;349021;28;1210;-75
2022/11/29 00:57:09;;;;;;;;;;;;;;;5.10;100.00;99954.50;349170;28;1299;-74
2022/11/29 00:57:19;;;;;;;;;;;;;;;5.10;100.00;99959.69;348724;28;4240;-75
2022/11/29 00:57:30;;;;;;;;;;;;;;;5.10;100.00;99959.69;346085;28;5707;-75
2022/11/29 00:57:40;;;;;;;;;;;;;;;5.09;100.00;99958.84;349363;28;1844;-76
2022/11/29 00:57:50;;;;;;;;;;;;;;;5.09;100.00;99958.84;349551;28;1819;-75
2022/11/29 00:58:00;;;;;;;;;;;;;;;5.09;100.00;99952.78;350619;28;3458;-75
2022/11/29 00:58:11;;;;;;;;;;;;;;;5.10;100.00;99964.91;350471;28;1282;-75
2022/11/29 00:58:21;;;;;;;;;;;;;;;5.09;100.00;99958.00;350717;28;884;-75
2022/11/29 00:58:31;;;;;;;;;;;;;;;5.10;100.00;99959.69;347951;28;1195;-76
2022/11/29 00:58:45;;;;;;;;;;;;;;;5.09;100.00;99958.84;351541;28;1194;-76
2022/11/29 00:58:55;;;;;;;;;;;;;;;5.10;100.00;99957.09;348791;28;1828;-76
2022/11/29 00:59:05;;;;;;;;;;;;;;;5.10;100.00;99957.97;350600;28;943;-75
2022/11/29 00:59:15;;;;;;;;;;;;;;;5.09;100.00;99958.00;349453;28;784;-75
2022/11/29 00:59:25;;;;;;;;;;;;;;;5.09;100.00;99958.84;347794;28;1201;-75
2022/11/29 00:59:36;;;;;;;;;;;;;;;5.09;100.00;99958.00;346445;28;1193;-75
2022/11/29 00:59:46;;;;;;;;;;;;;;;5.10;100.00;99959.69;345242;28;1327;-75
2022/11/29 00:59:56;;;;;;;;;;;;;;;5.09;100.00;99958.84;345335;28;955;-75
2022/11/29 01:00:07;;;;;;;;;;;;;;;5.10;100.00;99957.09;344075;28;1310;-75
2022/11/29 01:00:17;;;;;;;;;;;;;;;5.09;100.00;99955.41;343767;28;1091;-75
2022/11/29 01:00:27;;;;;;;;;;;;;;;5.08;100.00;99957.13;345289;28;986;-75
2022/11/29 01:00:37;;;;;;;;;;;;;;;5.10;100.00;99959.69;346495;28;856;-75
2022/11/29 01:00:47;;;;;;;;;;;;;;;5.10;100.00;99959.69;345807;28;1228;-75
2022/11/29 01:00:58;;;;;;;;;;;;;;;5.09;100.00;99961.44;347816;28;1534;-75
2022/11/29 01:01:08;;;;;;;;;;;;;;;5.10;100.00;99959.69;348148;28;1324;-75
2022/11/29 01:01:18;;;;;;;;;;;;;;;5.09;100.00;99958.84;346665;28;879;-75
2022/11/29 01:01:28;;;;;;;;;;;;;;;5.10;100.00;99954.50;348708;28;1071;-75